createdAt,value
2018-09-11T00:00:31.538Z,17.30
2018-09-11T00:02:59.759Z,17.30
2018-09-11T00:05:28.136Z,17.20
2018-09-11T00:07:56.368Z,17.20
2018-09-11T00:10:24.616Z,17.20
2018-09-11T00:12:52.968Z,17.00
2018-09-11T00:15:21.204Z,17.00
2018-09-11T00:17:49.445Z,17.00
2018-09-11T00:20:17.678Z,17.00
2018-09-11T00:22:45.920Z,16.90
2018-09-11T00:25:14.175Z,16.90
2018-09-11T00:27:42.444Z,16.90
2018-09-11T00:30:10.651Z,16.90
2018-09-11T00:32:38.935Z,16.80
2018-09-11T00:35:07.157Z,16.80
2018-09-11T00:37:35.377Z,16.80
2018-09-11T00:40:03.613Z,16.70
2018-09-11T00:42:31.831Z,16.70
2018-09-11T00:45:00.997Z,16.70
2018-09-11T00:47:29.232Z,16.80
2018-09-11T00:49:57.440Z,16.80
2018-09-11T00:52:25.669Z,16.80
2018-09-11T00:54:53.901Z,16.80
2018-09-11T00:57:22.161Z,16.80
2018-09-11T00:59:50.365Z,16.80
2018-09-11T01:02:18.597Z,16.90
2018-09-11T01:04:46.815Z,16.90
2018-09-11T01:07:15.048Z,16.80
2018-09-11T01:09:43.358Z,16.80
2018-09-11T01:12:11.654Z,16.80
2018-09-11T01:14:40.042Z,16.90
2018-09-11T01:17:08.268Z,16.90
2018-09-11T01:19:36.476Z,16.90
2018-09-11T01:22:04.708Z,16.80
2018-09-11T01:24:32.919Z,16.80
2018-09-11T01:27:01.180Z,16.80
2018-09-11T01:29:29.408Z,16.70
2018-09-11T01:31:57.653Z,16.60
2018-09-11T01:34:25.851Z,16.60
2018-09-11T01:36:54.069Z,16.60
2018-09-11T01:39:22.306Z,16.60
2018-09-11T01:41:50.553Z,16.50
2018-09-11T01:44:18.752Z,16.50
2018-09-11T01:46:46.990Z,16.50
2018-09-11T01:49:15.201Z,16.40
2018-09-11T01:51:43.444Z,16.40
2018-09-11T01:54:11.649Z,16.30
2018-09-11T01:56:39.858Z,16.30
2018-09-11T01:59:08.048Z,16.30
2018-09-11T02:01:36.290Z,16.30
2018-09-11T02:04:04.500Z,16.30
2018-09-11T02:06:32.728Z,16.30
2018-09-11T02:09:00.935Z,16.20
2018-09-11T02:11:29.190Z,16.20
2018-09-11T02:13:57.394Z,16.10
2018-09-11T02:16:25.659Z,16.10
2018-09-11T02:18:53.859Z,16.00
2018-09-11T02:21:22.080Z,16.00
2018-09-11T02:23:50.311Z,15.90
2018-09-11T02:26:18.513Z,15.80
2018-09-11T02:28:46.740Z,15.70
2018-09-11T02:31:14.953Z,15.60
2018-09-11T02:33:43.235Z,15.60
2018-09-11T02:36:11.450Z,15.50
2018-09-11T02:38:39.703Z,15.50
2018-09-11T02:41:07.911Z,15.40
2018-09-11T02:43:36.348Z,15.40
2018-09-11T02:46:04.559Z,15.50
2018-09-11T02:48:32.800Z,15.50
2018-09-11T02:51:01.019Z,15.60
2018-09-11T02:53:29.235Z,15.60
2018-09-11T02:55:57.445Z,15.60
2018-09-11T02:58:25.693Z,15.60
2018-09-11T03:00:53.918Z,15.60
2018-09-11T03:03:22.162Z,15.70
2018-09-11T03:05:50.384Z,15.70
2018-09-11T03:08:18.609Z,15.70
2018-09-11T03:10:46.823Z,15.80
2018-09-11T03:13:15.054Z,15.80
2018-09-11T03:15:43.253Z,15.90
2018-09-11T03:18:11.498Z,15.90
2018-09-11T03:20:39.714Z,16.00
2018-09-11T03:23:07.961Z,16.00
2018-09-11T03:25:36.178Z,16.00
2018-09-11T03:28:04.405Z,16.00
2018-09-11T03:30:32.619Z,16.00
2018-09-11T03:33:00.839Z,16.00
2018-09-11T03:35:29.051Z,16.10
2018-09-11T03:37:57.266Z,16.10
2018-09-11T03:40:25.479Z,16.10
2018-09-11T03:42:53.703Z,16.10
2018-09-11T03:45:21.916Z,16.10
2018-09-11T03:47:50.204Z,16.10
2018-09-11T03:50:18.447Z,16.10
2018-09-11T03:52:46.664Z,16.10
2018-09-11T03:55:14.892Z,16.10
2018-09-11T03:57:43.107Z,16.00
2018-09-11T04:00:11.417Z,16.00
2018-09-11T04:02:39.675Z,16.00
2018-09-11T04:05:07.897Z,16.00
2018-09-11T04:07:36.111Z,16.00
2018-09-11T04:10:04.357Z,16.00
2018-09-11T04:12:32.613Z,16.10
2018-09-11T04:15:00.853Z,16.10
2018-09-11T04:17:33.685Z,16.20
2018-09-11T04:20:01.937Z,16.20
2018-09-11T04:22:30.184Z,16.20
2018-09-11T04:24:58.406Z,16.20
2018-09-11T04:27:26.608Z,16.20
2018-09-11T04:29:54.888Z,16.10
2018-09-11T04:32:23.119Z,16.20
2018-09-11T04:34:51.368Z,16.20
2018-09-11T04:37:19.647Z,16.20
2018-09-11T04:39:47.880Z,16.20
2018-09-11T04:42:16.093Z,16.30
2018-09-11T04:44:44.302Z,16.30
2018-09-11T04:47:12.548Z,16.30
2018-09-11T04:49:40.779Z,16.30
2018-09-11T04:52:08.988Z,16.30
2018-09-11T04:54:37.291Z,16.30
2018-09-11T04:57:05.527Z,16.40
2018-09-11T04:59:33.975Z,16.50
2018-09-11T05:02:02.227Z,16.50
2018-09-11T05:04:30.461Z,16.60
2018-09-11T05:06:59.172Z,16.60
2018-09-11T05:09:27.542Z,16.70
2018-09-11T05:11:55.843Z,16.70
2018-09-11T05:14:24.454Z,16.80
2018-09-11T05:16:52.690Z,16.80
2018-09-11T05:19:20.966Z,16.80
2018-09-11T05:21:49.187Z,16.90
2018-09-11T05:24:17.407Z,16.90
2018-09-11T05:26:45.660Z,17.00
2018-09-11T05:29:13.893Z,17.00
2018-09-11T05:31:42.099Z,17.00
2018-09-11T05:34:10.362Z,17.10
2018-09-11T05:36:38.584Z,17.10
2018-09-11T05:39:08.053Z,17.20
2018-09-11T05:41:36.337Z,17.20
2018-09-11T05:44:05.191Z,17.20
2018-09-11T05:46:33.404Z,17.20
2018-09-11T05:49:01.729Z,17.30
2018-09-11T05:51:30.020Z,17.20
2018-09-11T05:53:58.250Z,17.30
2018-09-11T05:56:26.505Z,17.30
2018-09-11T05:58:54.755Z,17.50
2018-09-11T06:01:23.001Z,17.60
2018-09-11T06:03:51.232Z,17.80
2018-09-11T06:06:19.544Z,17.90
2018-09-11T06:08:47.835Z,18.10
2018-09-11T06:11:16.071Z,18.10
2018-09-11T06:13:44.336Z,18.30
2018-09-11T06:16:12.612Z,18.40
2018-09-11T06:18:40.799Z,18.50
2018-09-11T06:21:09.027Z,18.60
2018-09-11T06:23:37.315Z,18.80
2018-09-11T06:26:05.789Z,19.00
2018-09-11T06:28:34.045Z,19.10
2018-09-11T06:31:02.276Z,19.10
2018-09-11T06:33:30.509Z,19.30
2018-09-11T06:35:58.779Z,19.30
2018-09-11T06:38:27.009Z,19.40
2018-09-11T06:40:55.227Z,19.50
2018-09-11T06:43:23.426Z,19.60
2018-09-11T06:45:51.647Z,19.70
2018-09-11T06:48:19.870Z,19.80
2018-09-11T06:50:48.099Z,19.90
2018-09-11T06:53:16.318Z,20.10
2018-09-11T06:55:44.543Z,20.30
2018-09-11T06:58:12.757Z,20.30
2018-09-11T07:00:41.089Z,20.40
2018-09-11T07:03:09.304Z,20.40
2018-09-11T07:05:37.519Z,20.50
2018-09-11T07:08:05.911Z,20.90
2018-09-11T07:10:34.159Z,21.40
2018-09-11T07:13:02.364Z,21.70
2018-09-11T07:15:30.592Z,21.90
2018-09-11T07:17:58.844Z,22.30
2018-09-11T07:20:27.233Z,22.60
2018-09-11T07:22:55.377Z,22.80
2018-09-11T07:25:23.603Z,23.10
2018-09-11T07:27:51.904Z,24.20
2018-09-11T07:30:20.160Z,26.60
2018-09-11T07:32:48.350Z,28.60
2018-09-11T07:35:16.741Z,29.50
2018-09-11T07:37:45.002Z,30.30
2018-09-11T07:40:13.203Z,31.20
2018-09-11T07:42:41.424Z,32.00
2018-09-11T07:45:09.638Z,32.80
2018-09-11T07:47:37.965Z,33.40
2018-09-11T07:50:06.390Z,33.30
2018-09-11T07:52:34.672Z,32.80
2018-09-11T07:55:02.852Z,32.40
2018-09-11T07:57:31.172Z,31.30
2018-09-11T07:59:59.398Z,31.40
2018-09-11T08:02:27.591Z,31.50
2018-09-11T08:04:55.844Z,32.00
2018-09-11T08:07:24.063Z,32.80
2018-09-11T08:09:52.271Z,32.90
2018-09-11T08:12:20.495Z,31.20
2018-09-11T08:14:48.704Z,29.80
2018-09-11T08:17:16.929Z,29.20
2018-09-11T08:19:45.640Z,29.90
2018-09-11T08:22:13.931Z,30.10
2018-09-11T08:24:42.139Z,30.60
2018-09-11T08:27:10.371Z,30.80
2018-09-11T08:29:38.591Z,31.20
2018-09-11T08:32:06.873Z,31.00
2018-09-11T08:34:35.143Z,31.30
2018-09-11T08:37:03.397Z,31.90
2018-09-11T08:39:31.618Z,31.80
2018-09-11T08:41:59.874Z,31.60
2018-09-11T08:44:28.104Z,31.30
2018-09-11T08:46:58.961Z,31.20
2018-09-11T08:49:27.221Z,31.80
2018-09-11T08:51:55.451Z,33.00
2018-09-11T08:54:23.696Z,33.30
2018-09-11T08:56:51.925Z,32.50
2018-09-11T08:59:20.134Z,31.70
2018-09-11T09:01:48.357Z,31.50
2018-09-11T09:04:16.588Z,31.70
2018-09-11T09:06:44.798Z,31.90
2018-09-11T09:09:13.007Z,32.30
2018-09-11T09:11:41.324Z,31.80
2018-09-11T09:14:09.585Z,31.70
2018-09-11T09:16:38.139Z,31.50
2018-09-11T09:19:06.428Z,30.90
2018-09-11T09:21:34.655Z,30.70
2018-09-11T09:24:02.863Z,30.50
2018-09-11T09:26:31.116Z,30.10
2018-09-11T09:28:59.343Z,29.50
2018-09-11T09:31:27.547Z,28.70
2018-09-11T09:33:56.306Z,28.40
2018-09-11T09:36:24.532Z,28.20
2018-09-11T09:38:52.799Z,28.70
2018-09-11T09:41:21.065Z,29.20
2018-09-11T09:43:49.356Z,29.50
2018-09-11T09:46:17.575Z,29.20
2018-09-11T09:48:45.797Z,28.60
2018-09-11T09:51:14.019Z,28.30
2018-09-11T09:53:42.671Z,28.40
2018-09-11T09:56:11.103Z,28.50
2018-09-11T09:58:39.311Z,28.40
2018-09-11T10:01:12.989Z,28.30
2018-09-11T10:03:41.198Z,28.00
2018-09-11T10:06:09.455Z,27.80
2018-09-11T10:08:37.680Z,27.60
2018-09-11T10:11:05.976Z,27.80
2018-09-11T10:13:34.187Z,27.90
2018-09-11T10:16:02.418Z,27.80
2018-09-11T10:18:30.634Z,27.60
2018-09-11T10:20:58.858Z,27.30
2018-09-11T10:23:27.143Z,27.10
2018-09-11T10:25:55.387Z,26.80
2018-09-11T10:28:23.620Z,26.70
2018-09-11T10:30:51.859Z,26.70
2018-09-11T10:33:20.172Z,27.20
2018-09-11T10:35:48.413Z,27.80
2018-09-11T10:38:16.678Z,28.20
2018-09-11T10:40:44.875Z,28.30
2018-09-11T10:43:13.118Z,28.30
2018-09-11T10:45:41.387Z,28.20
2018-09-11T10:48:09.594Z,28.30
2018-09-11T10:50:37.838Z,28.00
2018-09-11T10:53:06.155Z,28.10
2018-09-11T10:55:34.363Z,28.20
2018-09-11T10:58:02.616Z,28.10
2018-09-11T11:00:30.961Z,28.30
2018-09-11T11:02:59.111Z,28.30
2018-09-11T11:05:27.326Z,28.20
2018-09-11T11:07:55.561Z,28.10
2018-09-11T11:10:23.771Z,28.00
2018-09-11T11:12:52.000Z,28.10
2018-09-11T11:15:20.215Z,27.90
2018-09-11T11:17:48.676Z,27.70
2018-09-11T11:20:16.918Z,27.70
2018-09-11T11:22:45.162Z,27.80
2018-09-11T11:25:13.385Z,28.10
2018-09-11T11:27:41.625Z,28.40
2018-09-11T11:30:09.849Z,28.40
2018-09-11T11:32:38.087Z,28.50
2018-09-11T11:35:06.373Z,28.80
2018-09-11T11:37:34.608Z,29.00
2018-09-11T11:40:02.888Z,29.20
2018-09-11T11:42:31.412Z,29.40
2018-09-11T11:44:59.640Z,29.50
2018-09-11T11:47:27.893Z,29.40
2018-09-11T11:49:56.360Z,29.00
2018-09-11T11:52:24.625Z,28.70
2018-09-11T11:54:52.893Z,28.70
2018-09-11T11:57:21.146Z,28.80
2018-09-11T11:59:50.179Z,29.00
2018-09-11T12:02:18.376Z,29.20
2018-09-11T12:04:46.604Z,29.40
2018-09-11T12:07:14.901Z,29.20
2018-09-11T12:09:43.267Z,29.00
2018-09-11T12:12:11.535Z,29.00
2018-09-11T12:14:39.769Z,29.00
2018-09-11T12:17:08.088Z,29.00
2018-09-11T12:19:36.564Z,28.80
2018-09-11T12:22:04.960Z,28.50
2018-09-11T12:24:33.325Z,28.30
2018-09-11T12:27:01.562Z,28.10
2018-09-11T12:29:29.898Z,28.10
2018-09-11T12:31:58.176Z,28.10
2018-09-11T12:34:26.471Z,27.80
2018-09-11T12:36:54.760Z,27.60
2018-09-11T12:39:22.983Z,27.50
2018-09-11T12:41:51.253Z,27.40
2018-09-11T12:44:19.492Z,27.40
2018-09-11T12:46:47.936Z,27.40
2018-09-11T12:49:16.032Z,27.50
2018-09-11T12:51:44.265Z,27.50
2018-09-11T12:54:12.560Z,27.60
2018-09-11T12:56:40.771Z,27.80
2018-09-11T12:59:09.103Z,28.00
2018-09-11T13:01:37.306Z,28.10
2018-09-11T13:04:05.891Z,28.00
2018-09-11T13:06:34.111Z,28.00
2018-09-11T13:09:02.375Z,27.90
2018-09-11T13:11:30.607Z,27.90
2018-09-11T13:13:58.831Z,28.00
2018-09-11T13:16:27.073Z,28.00
2018-09-11T13:18:55.312Z,27.90
2018-09-11T13:21:23.555Z,28.10
2018-09-11T13:23:52.819Z,28.30
2018-09-11T13:26:21.057Z,28.30
2018-09-11T13:28:49.287Z,28.20
2018-09-11T13:31:17.491Z,28.10
2018-09-11T13:33:45.768Z,28.10
2018-09-11T13:36:13.964Z,28.10
2018-09-11T13:38:42.200Z,28.00
2018-09-11T13:41:10.416Z,28.00
2018-09-11T13:43:38.666Z,28.00
2018-09-11T13:46:06.927Z,28.00
2018-09-11T13:48:35.203Z,27.90
2018-09-11T13:51:03.433Z,27.80
2018-09-11T13:53:31.699Z,27.70
2018-09-11T13:55:59.949Z,27.70
2018-09-11T13:58:28.211Z,27.70
2018-09-11T14:00:56.435Z,27.60
2018-09-11T14:03:24.627Z,27.50
2018-09-11T14:05:52.881Z,27.60
2018-09-11T14:08:21.120Z,27.60
2018-09-11T14:10:49.355Z,27.50
2018-09-11T14:13:17.567Z,27.50
2018-09-11T14:15:46.130Z,27.40
2018-09-11T14:18:14.400Z,27.30
2018-09-11T14:20:42.659Z,27.30
2018-09-11T14:23:10.936Z,27.30
2018-09-11T14:25:39.279Z,27.30
2018-09-11T14:28:07.549Z,27.40
2018-09-11T14:30:35.782Z,27.40
2018-09-11T14:33:04.063Z,27.50
2018-09-11T14:35:32.450Z,27.60
2018-09-11T14:38:00.666Z,27.60
2018-09-11T14:40:29.091Z,27.50
2018-09-11T14:42:57.619Z,27.40
2018-09-11T14:45:26.047Z,27.40
2018-09-11T14:47:54.442Z,27.40
2018-09-11T14:50:22.696Z,27.30
2018-09-11T14:52:51.053Z,27.20
2018-09-11T14:55:19.278Z,27.10
2018-09-11T14:57:47.624Z,27.10
2018-09-11T15:00:15.946Z,27.10
2018-09-11T15:02:44.163Z,26.90
2018-09-11T15:05:12.407Z,26.90
2018-09-11T15:07:40.624Z,26.90
2018-09-11T15:10:08.981Z,27.00
2018-09-11T15:12:37.297Z,27.10
2018-09-11T15:15:05.663Z,27.10
2018-09-11T15:17:33.966Z,27.10
2018-09-11T15:20:02.241Z,27.10
2018-09-11T15:22:30.504Z,27.10
2018-09-11T15:24:59.011Z,27.10
2018-09-11T15:27:27.299Z,27.10
2018-09-11T15:29:55.605Z,27.00
2018-09-11T15:32:23.943Z,26.90
2018-09-11T15:34:52.181Z,26.80
2018-09-11T15:37:20.423Z,26.80
2018-09-11T15:39:48.697Z,26.70
2018-09-11T15:42:16.924Z,26.70
2018-09-11T15:44:45.184Z,26.60
2018-09-11T15:47:13.412Z,26.70
2018-09-11T15:49:41.655Z,26.70
2018-09-11T15:52:09.895Z,26.70
2018-09-11T15:54:38.117Z,26.70
2018-09-11T15:57:06.484Z,26.70
2018-09-11T15:59:34.764Z,26.60
2018-09-11T16:02:02.984Z,26.60
2018-09-11T16:04:31.256Z,26.60
2018-09-11T16:06:59.541Z,26.60
2018-09-11T16:09:27.764Z,26.60
2018-09-11T16:11:56.031Z,26.60
2018-09-11T16:14:24.253Z,26.60
2018-09-11T16:16:52.509Z,26.60
2018-09-11T16:19:20.741Z,26.60
2018-09-11T16:21:48.995Z,26.60
2018-09-11T16:24:17.263Z,26.50
2018-09-11T16:26:45.512Z,26.50
2018-09-11T16:29:13.719Z,26.40
2018-09-11T16:31:41.944Z,26.30
2018-09-11T16:34:10.180Z,26.20
2018-09-11T16:36:38.474Z,26.10
2018-09-11T16:39:08.489Z,26.00
2018-09-11T16:41:36.736Z,25.90
2018-09-11T16:44:04.959Z,25.80
2018-09-11T16:46:33.292Z,25.70
2018-09-11T16:49:01.457Z,25.70
2018-09-11T16:51:29.699Z,25.60
2018-09-11T16:53:57.921Z,25.50
2018-09-11T16:56:26.204Z,25.40
2018-09-11T16:58:54.404Z,25.30
2018-09-11T17:01:22.659Z,25.10
2018-09-11T17:03:50.899Z,25.00
2018-09-11T17:06:19.159Z,24.90
2018-09-11T17:08:47.406Z,24.80
2018-09-11T17:11:15.639Z,24.70
2018-09-11T17:13:43.874Z,24.60
2018-09-11T17:16:12.152Z,24.50
2018-09-11T17:18:40.397Z,24.30
2018-09-11T17:21:08.658Z,24.20
2018-09-11T17:23:36.908Z,24.00
2018-09-11T17:26:05.195Z,23.90
2018-09-11T17:28:33.547Z,23.80
2018-09-11T17:31:01.781Z,23.60
2018-09-11T17:33:30.052Z,23.50
2018-09-11T17:35:58.381Z,23.40
2018-09-11T17:38:26.627Z,23.40
2018-09-11T17:40:54.880Z,23.30
2018-09-11T17:43:23.255Z,23.20
2018-09-11T17:45:51.548Z,23.20
2018-09-11T17:48:20.032Z,23.10
2018-09-11T17:50:48.248Z,23.10
2018-09-11T17:53:16.521Z,23.10
2018-09-11T17:55:44.747Z,23.00
2018-09-11T17:58:12.967Z,22.80
2018-09-11T18:00:41.895Z,22.70
2018-09-11T18:03:10.145Z,22.60
2018-09-11T18:05:38.412Z,22.50
2018-09-11T18:08:06.735Z,22.40
2018-09-11T18:10:34.964Z,22.30
2018-09-11T18:13:03.339Z,22.20
2018-09-11T18:15:31.558Z,22.20
2018-09-11T18:17:59.791Z,22.10
2018-09-11T18:20:27.987Z,22.10
2018-09-11T18:22:56.251Z,22.00
2018-09-11T18:25:24.469Z,21.90
2018-09-11T18:27:52.741Z,21.90
2018-09-11T18:30:20.965Z,21.70
2018-09-11T18:32:49.212Z,21.60
2018-09-11T18:35:17.439Z,21.50
2018-09-11T18:37:45.666Z,21.30
2018-09-11T18:40:13.907Z,21.20
2018-09-11T18:42:42.170Z,21.10
2018-09-11T18:45:10.552Z,20.90
2018-09-11T18:47:39.036Z,20.70
2018-09-11T18:50:07.372Z,20.70
2018-09-11T18:52:35.712Z,20.50
2018-09-11T18:55:03.927Z,20.30
2018-09-11T18:57:32.290Z,20.30
2018-09-11T19:00:00.707Z,20.20
2018-09-11T19:02:28.961Z,20.20
2018-09-11T19:04:57.208Z,20.20
2018-09-11T19:07:25.457Z,20.20
2018-09-11T19:09:53.647Z,20.10
2018-09-11T19:12:21.907Z,20.00
2018-09-11T19:14:50.095Z,19.90
2018-09-11T19:17:18.303Z,19.80
2018-09-11T19:19:46.736Z,19.70
2018-09-11T19:22:14.955Z,19.70
2018-09-11T19:24:43.724Z,19.60
2018-09-11T19:27:12.158Z,19.50
2018-09-11T19:29:40.378Z,19.50
2018-09-11T19:32:08.599Z,19.40
2018-09-11T19:34:36.799Z,19.30
2018-09-11T19:37:05.067Z,19.30
2018-09-11T19:39:33.335Z,19.10
2018-09-11T19:42:01.895Z,19.10
2018-09-11T19:44:30.155Z,19.00
2018-09-11T19:46:58.373Z,19.00
2018-09-11T19:49:26.614Z,18.90
2018-09-11T19:51:54.868Z,18.90
2018-09-11T19:54:23.114Z,19.00
2018-09-11T19:56:51.363Z,19.10
2018-09-11T19:59:19.851Z,19.20
2018-09-11T20:01:48.067Z,19.30
2018-09-11T20:04:17.129Z,19.30
2018-09-11T20:06:45.367Z,19.40
2018-09-11T20:09:13.607Z,19.40
2018-09-11T20:11:41.806Z,19.30
2018-09-11T20:14:10.056Z,19.30
2018-09-11T20:16:38.311Z,19.20
2018-09-11T20:19:07.130Z,19.20
2018-09-11T20:21:35.410Z,19.20
2018-09-11T20:24:03.675Z,19.20
2018-09-11T20:26:31.993Z,19.20
2018-09-11T20:29:00.163Z,19.20
2018-09-11T20:31:28.436Z,19.20
2018-09-11T20:33:57.140Z,19.20
2018-09-11T20:36:25.381Z,19.30
2018-09-11T20:38:53.671Z,19.30
2018-09-11T20:41:21.947Z,19.30
2018-09-11T20:43:50.417Z,19.40
2018-09-11T20:46:18.693Z,19.40
2018-09-11T20:48:47.136Z,19.50
2018-09-11T20:51:15.360Z,19.50
2018-09-11T20:53:43.837Z,19.40
2018-09-11T20:56:12.056Z,19.30
2018-09-11T20:58:40.331Z,19.30
2018-09-11T21:01:08.945Z,19.20
2018-09-11T21:03:37.368Z,19.10
2018-09-11T21:06:05.586Z,19.00
2018-09-11T21:08:33.816Z,19.00
2018-09-11T21:11:02.221Z,19.00
2018-09-11T21:13:30.473Z,18.90
2018-09-11T21:15:58.680Z,18.90
2018-09-11T21:18:27.296Z,18.90
2018-09-11T21:20:55.504Z,19.00
2018-09-11T21:23:23.749Z,19.00
2018-09-11T21:25:52.003Z,19.10
2018-09-11T21:28:20.257Z,19.20
2018-09-11T21:30:48.502Z,19.10
2018-09-11T21:33:16.811Z,19.10
2018-09-11T21:35:45.048Z,19.10
2018-09-11T21:38:13.393Z,19.10
2018-09-11T21:40:41.902Z,19.00
2018-09-11T21:43:10.203Z,19.00
2018-09-11T21:45:38.423Z,19.00
2018-09-11T21:48:06.757Z,18.90
2018-09-11T21:50:34.972Z,18.80
2018-09-11T21:53:03.188Z,18.80
2018-09-11T21:55:31.415Z,18.80
2018-09-11T21:57:59.850Z,18.80
2018-09-11T22:00:28.067Z,18.70
2018-09-11T22:02:56.316Z,18.80
2018-09-11T22:05:25.072Z,18.70
2018-09-11T22:07:53.340Z,18.60
2018-09-11T22:10:21.573Z,18.60
2018-09-11T22:12:49.791Z,18.60
2018-09-11T22:15:18.034Z,18.50
2018-09-11T22:17:46.283Z,18.50
2018-09-11T22:20:15.878Z,18.50
2018-09-11T22:22:44.123Z,18.50
2018-09-11T22:25:12.434Z,18.40
2018-09-11T22:27:40.672Z,18.40
2018-09-11T22:30:09.064Z,18.40
2018-09-11T22:32:37.281Z,18.30
2018-09-11T22:35:05.544Z,18.30
2018-09-11T22:37:33.771Z,18.30
2018-09-11T22:40:02.008Z,18.40
2018-09-11T22:42:30.231Z,18.40
2018-09-11T22:44:58.459Z,18.40
2018-09-11T22:47:26.663Z,18.40
2018-09-11T22:49:54.896Z,18.40
2018-09-11T22:52:23.117Z,18.40
2018-09-11T22:54:52.491Z,18.30
2018-09-11T22:57:20.718Z,18.40
2018-09-11T22:59:48.958Z,18.50
2018-09-11T23:02:17.220Z,18.50
2018-09-11T23:04:45.455Z,18.60
2018-09-11T23:07:13.659Z,18.50
2018-09-11T23:09:41.878Z,18.50
2018-09-11T23:12:10.082Z,18.50
2018-09-11T23:14:38.301Z,18.40
2018-09-11T23:17:06.577Z,18.20
2018-09-11T23:19:34.835Z,18.20
2018-09-11T23:22:03.251Z,18.10
2018-09-11T23:24:31.494Z,18.10
2018-09-11T23:26:59.712Z,18.00
2018-09-11T23:29:27.938Z,17.90
2018-09-11T23:31:56.172Z,17.70
2018-09-11T23:34:24.395Z,17.50
2018-09-11T23:36:52.604Z,17.30
2018-09-11T23:39:20.825Z,17.20
2018-09-11T23:41:49.123Z,17.10
2018-09-11T23:44:17.332Z,17.10
2018-09-11T23:46:45.584Z,17.00
2018-09-11T23:49:13.804Z,17.00
2018-09-11T23:51:42.048Z,16.90
2018-09-11T23:54:10.276Z,16.90
2018-09-11T23:56:38.491Z,16.90
2018-09-11T23:59:06.679Z,17.00
